sensor_id;sensor_type;location;lat;lon;timestamp;temperature;humidity
52285;DHT22;38238;53.304;6.606;2022-08-05T00:01:10;19.10;99.90
52285;DHT22;38238;53.304;6.606;2022-08-05T00:03:36;19.20;99.90
52285;DHT22;38238;53.304;6.606;2022-08-05T00:06:01;19.20;99.90
52285;DHT22;38238;53.304;6.606;2022-08-05T00:08:27;19.10;99.90
52285;DHT22;38238;53.304;6.606;2022-08-05T00:10:53;19.10;99.90
52285;DHT22;38238;53.304;6.606;2022-08-05T00:13:19;19.10;99.90
52285;DHT22;38238;53.304;6.606;2022-08-05T00:15:44;19.00;99.90
52285;DHT22;38238;53.304;6.606;2022-08-05T00:18:10;19.00;99.90
52285;DHT22;38238;53.304;6.606;2022-08-05T00:20:36;18.90;99.90
52285;DHT22;38238;53.304;6.606;2022-08-05T00:23:02;18.90;99.90
52285;DHT22;38238;53.304;6.606;2022-08-05T00:25:27;18.80;99.90
52285;DHT22;38238;53.304;6.606;2022-08-05T00:27:53;18.80;99.90
52285;DHT22;38238;53.304;6.606;2022-08-05T00:30:19;18.80;99.90
52285;DHT22;38238;53.304;6.606;2022-08-05T00:32:45;18.70;99.90
52285;DHT22;38238;53.304;6.606;2022-08-05T00:35:10;18.80;99.90
52285;DHT22;38238;53.304;6.606;2022-08-05T00:37:36;18.80;99.90
52285;DHT22;38238;53.304;6.606;2022-08-05T00:40:02;18.80;99.90
52285;DHT22;38238;53.304;6.606;2022-08-05T00:42:30;18.70;99.90
52285;DHT22;38238;53.304;6.606;2022-08-05T00:44:56;18.60;99.90
52285;DHT22;38238;53.304;6.606;2022-08-05T00:47:21;18.50;99.90
52285;DHT22;38238;53.304;6.606;2022-08-05T00:49:47;18.30;99.90
52285;DHT22;38238;53.304;6.606;2022-08-05T00:52:12;18.20;99.90
52285;DHT22;38238;53.304;6.606;2022-08-05T00:54:38;18.10;99.90
52285;DHT22;38238;53.304;6.606;2022-08-05T00:57:04;18.10;99.90
52285;DHT22;38238;53.304;6.606;2022-08-05T00:59:30;18.00;99.90
52285;DHT22;38238;53.304;6.606;2022-08-05T01:01:55;17.90;99.90
52285;DHT22;38238;53.304;6.606;2022-08-05T01:04:21;17.90;99.90
52285;DHT22;38238;53.304;6.606;2022-08-05T01:06:47;18.00;99.90
52285;DHT22;38238;53.304;6.606;2022-08-05T01:09:13;18.00;99.90
52285;DHT22;38238;53.304;6.606;2022-08-05T01:11:39;18.10;99.90
52285;DHT22;38238;53.304;6.606;2022-08-05T01:14:30;18.10;99.90
52285;DHT22;38238;53.304;6.606;2022-08-05T01:17:05;18.10;99.90
52285;DHT22;38238;53.304;6.606;2022-08-05T01:20:08;18.10;99.90
52285;DHT22;38238;53.304;6.606;2022-08-05T01:22:52;18.10;99.90
52285;DHT22;38238;53.304;6.606;2022-08-05T01:28:15;18.20;99.90
52285;DHT22;38238;53.304;6.606;2022-08-05T01:33:26;18.30;99.90
52285;DHT22;38238;53.304;6.606;2022-08-05T01:35:57;18.40;99.90
52285;DHT22;38238;53.304;6.606;2022-08-05T01:38:24;18.50;99.90
52285;DHT22;38238;53.304;6.606;2022-08-05T01:40:51;18.50;99.90
52285;DHT22;38238;53.304;6.606;2022-08-05T01:43:19;18.60;99.90
52285;DHT22;38238;53.304;6.606;2022-08-05T01:45:46;18.60;99.90
52285;DHT22;38238;53.304;6.606;2022-08-05T01:48:12;18.60;99.90
52285;DHT22;38238;53.304;6.606;2022-08-05T01:50:39;18.70;99.90
52285;DHT22;38238;53.304;6.606;2022-08-05T01:53:09;18.70;99.90
52285;DHT22;38238;53.304;6.606;2022-08-05T01:55:36;18.70;99.90
52285;DHT22;38238;53.304;6.606;2022-08-05T01:58:07;18.70;99.90
52285;DHT22;38238;53.304;6.606;2022-08-05T02:00:37;18.60;99.90
52285;DHT22;38238;53.304;6.606;2022-08-05T02:03:10;18.50;99.90
52285;DHT22;38238;53.304;6.606;2022-08-05T02:05:37;18.50;99.90
52285;DHT22;38238;53.304;6.606;2022-08-05T02:08:04;18.50;99.90
52285;DHT22;38238;53.304;6.606;2022-08-05T02:10:40;18.50;99.90
52285;DHT22;38238;53.304;6.606;2022-08-05T02:13:20;18.50;99.90
52285;DHT22;38238;53.304;6.606;2022-08-05T02:15:57;18.50;99.90
52285;DHT22;38238;53.304;6.606;2022-08-05T02:18:41;18.60;99.90
52285;DHT22;38238;53.304;6.606;2022-08-05T02:21:12;18.60;99.90
52285;DHT22;38238;53.304;6.606;2022-08-05T02:23:41;18.60;99.90
52285;DHT22;38238;53.304;6.606;2022-08-05T02:26:09;18.60;99.90
52285;DHT22;38238;53.304;6.606;2022-08-05T02:28:41;18.50;99.90
52285;DHT22;38238;53.304;6.606;2022-08-05T02:31:11;18.50;99.90
52285;DHT22;38238;53.304;6.606;2022-08-05T02:33:43;18.40;99.90
52285;DHT22;38238;53.304;6.606;2022-08-05T02:36:12;18.40;99.90
52285;DHT22;38238;53.304;6.606;2022-08-05T02:38:45;18.50;99.90
52285;DHT22;38238;53.304;6.606;2022-08-05T02:41:11;18.40;99.90
52285;DHT22;38238;53.304;6.606;2022-08-05T02:43:38;18.40;99.90
52285;DHT22;38238;53.304;6.606;2022-08-05T02:46:06;18.40;99.90
52285;DHT22;38238;53.304;6.606;2022-08-05T02:48:32;18.40;99.90
52285;DHT22;38238;53.304;6.606;2022-08-05T02:50:59;18.40;99.90
52285;DHT22;38238;53.304;6.606;2022-08-05T02:53:28;18.40;99.90
52285;DHT22;38238;53.304;6.606;2022-08-05T02:55:54;18.50;99.90
52285;DHT22;38238;53.304;6.606;2022-08-05T02:58:22;18.40;99.90
52285;DHT22;38238;53.304;6.606;2022-08-05T03:00:49;18.40;99.90
52285;DHT22;38238;53.304;6.606;2022-08-05T03:03:19;18.50;99.90
52285;DHT22;38238;53.304;6.606;2022-08-05T03:05:49;18.50;99.90
52285;DHT22;38238;53.304;6.606;2022-08-05T03:08:15;18.50;99.90
52285;DHT22;38238;53.304;6.606;2022-08-05T03:10:42;18.50;99.90
52285;DHT22;38238;53.304;6.606;2022-08-05T03:13:15;18.50;99.90
52285;DHT22;38238;53.304;6.606;2022-08-05T03:15:45;18.50;99.90
52285;DHT22;38238;53.304;6.606;2022-08-05T03:18:12;18.50;99.90
52285;DHT22;38238;53.304;6.606;2022-08-05T03:20:38;18.50;99.90
52285;DHT22;38238;53.304;6.606;2022-08-05T03:23:06;18.40;99.90
52285;DHT22;38238;53.304;6.606;2022-08-05T03:25:33;18.50;99.90
52285;DHT22;38238;53.304;6.606;2022-08-05T03:28:01;18.40;99.90
52285;DHT22;38238;53.304;6.606;2022-08-05T03:30:28;18.40;99.90
52285;DHT22;38238;53.304;6.606;2022-08-05T03:32:58;18.40;99.90
52285;DHT22;38238;53.304;6.606;2022-08-05T03:35:25;18.50;99.90
52285;DHT22;38238;53.304;6.606;2022-08-05T03:37:55;18.40;99.90
52285;DHT22;38238;53.304;6.606;2022-08-05T03:40:20;18.40;99.90
52285;DHT22;38238;53.304;6.606;2022-08-05T03:42:46;18.40;99.90
52285;DHT22;38238;53.304;6.606;2022-08-05T03:45:12;18.40;99.90
52285;DHT22;38238;53.304;6.606;2022-08-05T03:47:37;18.40;99.90
52285;DHT22;38238;53.304;6.606;2022-08-05T03:50:03;18.40;99.90
52285;DHT22;38238;53.304;6.606;2022-08-05T03:52:34;18.40;99.90
52285;DHT22;38238;53.304;6.606;2022-08-05T03:55:07;18.40;99.90
52285;DHT22;38238;53.304;6.606;2022-08-05T03:57:37;18.40;99.90
52285;DHT22;38238;53.304;6.606;2022-08-05T04:00:07;18.40;99.90
52285;DHT22;38238;53.304;6.606;2022-08-05T04:02:34;18.40;99.90
52285;DHT22;38238;53.304;6.606;2022-08-05T04:05:02;18.40;99.90
52285;DHT22;38238;53.304;6.606;2022-08-05T04:07:29;18.40;99.90
52285;DHT22;38238;53.304;6.606;2022-08-05T04:09:56;18.30;99.90
52285;DHT22;38238;53.304;6.606;2022-08-05T04:12:22;18.30;99.90
52285;DHT22;38238;53.304;6.606;2022-08-05T04:14:48;18.30;99.90
52285;DHT22;38238;53.304;6.606;2022-08-05T04:17:15;18.30;99.90
52285;DHT22;38238;53.304;6.606;2022-08-05T04:19:45;18.30;99.90
52285;DHT22;38238;53.304;6.606;2022-08-05T04:22:11;18.30;99.90
52285;DHT22;38238;53.304;6.606;2022-08-05T04:24:42;18.30;99.90
52285;DHT22;38238;53.304;6.606;2022-08-05T04:27:08;18.30;99.90
52285;DHT22;38238;53.304;6.606;2022-08-05T04:29:34;18.30;99.90
52285;DHT22;38238;53.304;6.606;2022-08-05T04:32:00;18.30;99.90
52285;DHT22;38238;53.304;6.606;2022-08-05T04:34:26;18.30;99.90
52285;DHT22;38238;53.304;6.606;2022-08-05T04:36:52;18.30;99.90
52285;DHT22;38238;53.304;6.606;2022-08-05T04:39:19;18.30;99.90
52285;DHT22;38238;53.304;6.606;2022-08-05T04:41:45;18.20;99.90
52285;DHT22;38238;53.304;6.606;2022-08-05T04:44:11;18.20;99.90
52285;DHT22;38238;53.304;6.606;2022-08-05T04:46:37;18.20;99.90
52285;DHT22;38238;53.304;6.606;2022-08-05T04:49:03;18.20;99.90
52285;DHT22;38238;53.304;6.606;2022-08-05T04:51:29;18.20;99.90
52285;DHT22;38238;53.304;6.606;2022-08-05T04:53:57;18.20;99.90
52285;DHT22;38238;53.304;6.606;2022-08-05T04:56:22;18.20;99.90
52285;DHT22;38238;53.304;6.606;2022-08-05T04:58:48;18.30;99.90
52285;DHT22;38238;53.304;6.606;2022-08-05T05:01:14;18.30;99.90
52285;DHT22;38238;53.304;6.606;2022-08-05T05:03:40;18.30;99.90
52285;DHT22;38238;53.304;6.606;2022-08-05T05:06:11;18.30;99.90
52285;DHT22;38238;53.304;6.606;2022-08-05T05:08:37;18.30;99.90
52285;DHT22;38238;53.304;6.606;2022-08-05T05:11:03;18.30;99.90
52285;DHT22;38238;53.304;6.606;2022-08-05T05:13:29;18.30;99.90
52285;DHT22;38238;53.304;6.606;2022-08-05T05:15:55;18.30;99.90
52285;DHT22;38238;53.304;6.606;2022-08-05T05:18:21;18.30;99.90
52285;DHT22;38238;53.304;6.606;2022-08-05T05:20:47;18.30;99.90
52285;DHT22;38238;53.304;6.606;2022-08-05T05:23:13;18.20;99.90
52285;DHT22;38238;53.304;6.606;2022-08-05T05:25:42;18.30;99.90
52285;DHT22;38238;53.304;6.606;2022-08-05T05:28:09;18.30;99.90
52285;DHT22;38238;53.304;6.606;2022-08-05T05:30:36;18.20;99.90
52285;DHT22;38238;53.304;6.606;2022-08-05T05:33:03;18.10;99.90
52285;DHT22;38238;53.304;6.606;2022-08-05T05:35:30;18.00;99.90
52285;DHT22;38238;53.304;6.606;2022-08-05T05:37:58;18.00;99.90
52285;DHT22;38238;53.304;6.606;2022-08-05T05:40:28;18.10;99.90
52285;DHT22;38238;53.304;6.606;2022-08-05T05:42:54;18.10;99.90
52285;DHT22;38238;53.304;6.606;2022-08-05T05:45:20;18.10;99.90
52285;DHT22;38238;53.304;6.606;2022-08-05T05:47:46;18.20;99.90
52285;DHT22;38238;53.304;6.606;2022-08-05T05:50:17;18.20;99.90
52285;DHT22;38238;53.304;6.606;2022-08-05T05:52:44;18.20;99.90
52285;DHT22;38238;53.304;6.606;2022-08-05T05:55:12;18.20;99.90
52285;DHT22;38238;53.304;6.606;2022-08-05T05:57:40;18.10;99.90
52285;DHT22;38238;53.304;6.606;2022-08-05T06:00:09;18.10;99.90
52285;DHT22;38238;53.304;6.606;2022-08-05T06:02:35;18.10;99.90
52285;DHT22;38238;53.304;6.606;2022-08-05T06:05:01;18.00;99.90
52285;DHT22;38238;53.304;6.606;2022-08-05T06:07:27;18.00;99.90
52285;DHT22;38238;53.304;6.606;2022-08-05T06:09:52;18.00;99.90
52285;DHT22;38238;53.304;6.606;2022-08-05T06:12:18;18.00;99.90
52285;DHT22;38238;53.304;6.606;2022-08-05T06:14:44;18.00;99.90
52285;DHT22;38238;53.304;6.606;2022-08-05T06:17:10;18.00;99.90
52285;DHT22;38238;53.304;6.606;2022-08-05T06:19:36;18.10;99.90
52285;DHT22;38238;53.304;6.606;2022-08-05T06:22:06;18.20;99.90
52285;DHT22;38238;53.304;6.606;2022-08-05T06:24:33;18.30;99.90
52285;DHT22;38238;53.304;6.606;2022-08-05T06:26:59;18.40;99.90
52285;DHT22;38238;53.304;6.606;2022-08-05T06:29:24;18.50;99.90
52285;DHT22;38238;53.304;6.606;2022-08-05T06:31:51;18.60;99.90
52285;DHT22;38238;53.304;6.606;2022-08-05T06:34:16;18.60;99.90
52285;DHT22;38238;53.304;6.606;2022-08-05T06:36:42;18.70;99.90
52285;DHT22;38238;53.304;6.606;2022-08-05T06:39:08;18.70;99.90
52285;DHT22;38238;53.304;6.606;2022-08-05T06:41:34;18.70;99.90
52285;DHT22;38238;53.304;6.606;2022-08-05T06:44:00;18.70;99.90
52285;DHT22;38238;53.304;6.606;2022-08-05T06:46:26;18.80;99.90
52285;DHT22;38238;53.304;6.606;2022-08-05T06:48:52;18.90;99.90
52285;DHT22;38238;53.304;6.606;2022-08-05T06:51:17;18.90;99.90
52285;DHT22;38238;53.304;6.606;2022-08-05T06:53:43;19.00;99.90
52285;DHT22;38238;53.304;6.606;2022-08-05T06:56:09;19.10;99.90
52285;DHT22;38238;53.304;6.606;2022-08-05T06:58:34;19.10;99.90
52285;DHT22;38238;53.304;6.606;2022-08-05T07:01:01;19.10;99.90
52285;DHT22;38238;53.304;6.606;2022-08-05T07:03:27;19.10;99.90
52285;DHT22;38238;53.304;6.606;2022-08-05T07:05:53;19.10;99.90
52285;DHT22;38238;53.304;6.606;2022-08-05T07:08:19;19.20;99.90
52285;DHT22;38238;53.304;6.606;2022-08-05T07:10:47;19.30;99.90
52285;DHT22;38238;53.304;6.606;2022-08-05T07:13:13;19.30;99.90
52285;DHT22;38238;53.304;6.606;2022-08-05T07:15:57;19.30;99.90
52285;DHT22;38238;53.304;6.606;2022-08-05T07:18:42;19.30;99.90
52285;DHT22;38238;53.304;6.606;2022-08-05T07:21:07;19.30;99.90
52285;DHT22;38238;53.304;6.606;2022-08-05T07:23:34;19.40;99.90
52285;DHT22;38238;53.304;6.606;2022-08-05T07:25:59;19.50;99.90
52285;DHT22;38238;53.304;6.606;2022-08-05T07:28:26;19.60;99.90
52285;DHT22;38238;53.304;6.606;2022-08-05T07:30:52;19.80;99.90
52285;DHT22;38238;53.304;6.606;2022-08-05T07:33:17;19.80;99.90
52285;DHT22;38238;53.304;6.606;2022-08-05T07:35:46;19.90;99.90
52285;DHT22;38238;53.304;6.606;2022-08-05T07:38:16;20.00;99.90
52285;DHT22;38238;53.304;6.606;2022-08-05T07:40:42;20.10;99.90
52285;DHT22;38238;53.304;6.606;2022-08-05T07:43:08;20.10;99.90
52285;DHT22;38238;53.304;6.606;2022-08-05T07:45:34;20.20;99.90
52285;DHT22;38238;53.304;6.606;2022-08-05T07:48:00;20.20;99.90
52285;DHT22;38238;53.304;6.606;2022-08-05T07:50:26;20.40;99.90
52285;DHT22;38238;53.304;6.606;2022-08-05T07:52:54;20.50;99.90
52285;DHT22;38238;53.304;6.606;2022-08-05T07:55:20;20.60;99.90
52285;DHT22;38238;53.304;6.606;2022-08-05T07:57:46;20.70;99.90
52285;DHT22;38238;53.304;6.606;2022-08-05T08:00:12;20.70;99.90
52285;DHT22;38238;53.304;6.606;2022-08-05T08:02:39;20.70;99.90
52285;DHT22;38238;53.304;6.606;2022-08-05T08:05:05;20.70;99.90
52285;DHT22;38238;53.304;6.606;2022-08-05T08:07:32;20.60;99.90
52285;DHT22;38238;53.304;6.606;2022-08-05T08:09:58;20.60;99.90
52285;DHT22;38238;53.304;6.606;2022-08-05T08:12:23;20.60;99.90
52285;DHT22;38238;53.304;6.606;2022-08-05T08:14:49;20.70;99.90
52285;DHT22;38238;53.304;6.606;2022-08-05T08:17:15;20.80;99.90
52285;DHT22;38238;53.304;6.606;2022-08-05T08:19:41;21.00;99.90
52285;DHT22;38238;53.304;6.606;2022-08-05T08:22:08;21.10;99.90
52285;DHT22;38238;53.304;6.606;2022-08-05T08:24:34;21.20;99.90
52285;DHT22;38238;53.304;6.606;2022-08-05T08:27:00;21.20;99.90
52285;DHT22;38238;53.304;6.606;2022-08-05T08:29:26;21.00;99.90
52285;DHT22;38238;53.304;6.606;2022-08-05T08:31:51;20.90;99.90
52285;DHT22;38238;53.304;6.606;2022-08-05T08:34:19;20.80;99.90
52285;DHT22;38238;53.304;6.606;2022-08-05T08:36:45;20.60;99.90
52285;DHT22;38238;53.304;6.606;2022-08-05T08:39:11;20.60;99.90
52285;DHT22;38238;53.304;6.606;2022-08-05T08:41:40;20.70;99.90
52285;DHT22;38238;53.304;6.606;2022-08-05T08:44:07;20.80;99.90
52285;DHT22;38238;53.304;6.606;2022-08-05T08:46:33;20.90;99.90
52285;DHT22;38238;53.304;6.606;2022-08-05T08:49:01;20.90;99.90
52285;DHT22;38238;53.304;6.606;2022-08-05T08:51:31;20.80;99.90
52285;DHT22;38238;53.304;6.606;2022-08-05T08:53:57;20.70;99.90
52285;DHT22;38238;53.304;6.606;2022-08-05T08:56:23;20.50;99.90
52285;DHT22;38238;53.304;6.606;2022-08-05T08:58:49;21.00;99.90
52285;DHT22;38238;53.304;6.606;2022-08-05T09:01:16;22.00;99.90
52285;DHT22;38238;53.304;6.606;2022-08-05T09:03:50;22.90;99.90
52285;DHT22;38238;53.304;6.606;2022-08-05T09:06:16;23.40;99.90
52285;DHT22;38238;53.304;6.606;2022-08-05T09:08:42;22.90;99.20
52285;DHT22;38238;53.304;6.606;2022-08-05T09:11:08;22.20;99.20
52285;DHT22;38238;53.304;6.606;2022-08-05T09:13:35;22.00;99.90
52285;DHT22;38238;53.304;6.606;2022-08-05T09:16:02;22.60;99.90
52285;DHT22;38238;53.304;6.606;2022-08-05T09:18:28;23.20;99.80
52285;DHT22;38238;53.304;6.606;2022-08-05T09:20:54;23.90;99.50
52285;DHT22;38238;53.304;6.606;2022-08-05T09:23:20;24.40;98.60
52285;DHT22;38238;53.304;6.606;2022-08-05T09:25:51;24.60;97.30
52285;DHT22;38238;53.304;6.606;2022-08-05T09:28:22;24.00;97.00
52285;DHT22;38238;53.304;6.606;2022-08-05T09:30:53;23.70;97.10
52285;DHT22;38238;53.304;6.606;2022-08-05T09:33:20;23.90;97.20
52285;DHT22;38238;53.304;6.606;2022-08-05T09:36:12;24.10;96.50
52285;DHT22;38238;53.304;6.606;2022-08-05T09:38:38;24.30;96.00
52285;DHT22;38238;53.304;6.606;2022-08-05T09:41:19;23.80;95.60
52285;DHT22;38238;53.304;6.606;2022-08-05T09:43:44;23.60;96.50
52285;DHT22;38238;53.304;6.606;2022-08-05T09:46:30;24.00;96.70
52285;DHT22;38238;53.304;6.606;2022-08-05T09:48:58;24.20;95.60
52285;DHT22;38238;53.304;6.606;2022-08-05T09:51:37;23.80;95.40
52285;DHT22;38238;53.304;6.606;2022-08-05T09:54:05;23.60;94.90
52285;DHT22;38238;53.304;6.606;2022-08-05T09:56:35;23.80;95.30
52285;DHT22;38238;53.304;6.606;2022-08-05T09:59:11;24.20;95.50
52285;DHT22;38238;53.304;6.606;2022-08-05T10:01:40;24.40;95.00
52285;DHT22;38238;53.304;6.606;2022-08-05T10:04:11;24.50;94.30
52285;DHT22;38238;53.304;6.606;2022-08-05T10:06:56;24.10;93.50
52285;DHT22;38238;53.304;6.606;2022-08-05T10:09:22;24.00;93.40
52285;DHT22;38238;53.304;6.606;2022-08-05T10:11:49;24.00;93.60
52285;DHT22;38238;53.304;6.606;2022-08-05T10:14:21;24.20;94.00
52285;DHT22;38238;53.304;6.606;2022-08-05T10:16:48;24.40;93.70
52285;DHT22;38238;53.304;6.606;2022-08-05T10:19:15;24.40;93.10
52285;DHT22;38238;53.304;6.606;2022-08-05T10:21:40;24.50;93.20
52285;DHT22;38238;53.304;6.606;2022-08-05T10:24:10;24.50;92.10
52285;DHT22;38238;53.304;6.606;2022-08-05T10:26:42;24.60;92.20
52285;DHT22;38238;53.304;6.606;2022-08-05T10:29:09;24.70;91.70
52285;DHT22;38238;53.304;6.606;2022-08-05T10:31:36;24.70;91.30
52285;DHT22;38238;53.304;6.606;2022-08-05T10:34:03;24.60;90.90
52285;DHT22;38238;53.304;6.606;2022-08-05T10:36:29;24.50;91.40
52285;DHT22;38238;53.304;6.606;2022-08-05T10:38:59;24.60;91.20
52285;DHT22;38238;53.304;6.606;2022-08-05T10:41:31;24.80;91.40
52285;DHT22;38238;53.304;6.606;2022-08-05T10:44:05;24.90;91.40
52285;DHT22;38238;53.304;6.606;2022-08-05T10:46:53;24.70;90.70
52285;DHT22;38238;53.304;6.606;2022-08-05T10:49:19;24.40;89.80
52285;DHT22;38238;53.304;6.606;2022-08-05T10:51:50;24.30;90.10
52285;DHT22;38238;53.304;6.606;2022-08-05T10:54:23;24.10;87.80
52285;DHT22;38238;53.304;6.606;2022-08-05T10:56:53;24.00;89.40
52285;DHT22;38238;53.304;6.606;2022-08-05T10:59:30;24.20;89.40
52285;DHT22;38238;53.304;6.606;2022-08-05T11:02:10;24.40;89.40
52285;DHT22;38238;53.304;6.606;2022-08-05T11:04:44;24.40;87.90
52285;DHT22;38238;53.304;6.606;2022-08-05T11:07:10;24.40;87.20
52285;DHT22;38238;53.304;6.606;2022-08-05T11:09:52;24.20;86.90
52285;DHT22;38238;53.304;6.606;2022-08-05T11:15:17;24.30;86.00
52285;DHT22;38238;53.304;6.606;2022-08-05T11:17:48;24.50;87.30
52285;DHT22;38238;53.304;6.606;2022-08-05T11:20:41;24.60;85.00
52285;DHT22;38238;53.304;6.606;2022-08-05T11:23:30;24.30;84.50
52285;DHT22;38238;53.304;6.606;2022-08-05T11:26:23;24.00;84.30
52285;DHT22;38238;53.304;6.606;2022-08-05T11:28:51;23.80;85.90
52285;DHT22;38238;53.304;6.606;2022-08-05T11:36:17;24.00;86.40
52285;DHT22;38238;53.304;6.606;2022-08-05T11:41:35;23.70;84.80
52285;DHT22;38238;53.304;6.606;2022-08-05T11:44:04;23.40;84.00
52285;DHT22;38238;53.304;6.606;2022-08-05T11:49:03;22.70;86.30
52285;DHT22;38238;53.304;6.606;2022-08-05T11:51:30;23.00;88.10
52285;DHT22;38238;53.304;6.606;2022-08-05T11:53:57;23.50;87.40
52285;DHT22;38238;53.304;6.606;2022-08-05T11:56:25;23.60;86.10
52285;DHT22;38238;53.304;6.606;2022-08-05T11:58:51;23.30;86.40
52285;DHT22;38238;53.304;6.606;2022-08-05T12:01:20;22.80;87.70
52285;DHT22;38238;53.304;6.606;2022-08-05T12:03:51;22.40;89.20
52285;DHT22;38238;53.304;6.606;2022-08-05T12:06:24;22.50;89.50
52285;DHT22;38238;53.304;6.606;2022-08-05T12:08:57;22.70;90.00
52285;DHT22;38238;53.304;6.606;2022-08-05T12:11:29;22.60;88.30
52285;DHT22;38238;53.304;6.606;2022-08-05T12:14:03;22.00;88.20
52285;DHT22;38238;53.304;6.606;2022-08-05T12:16:34;21.50;88.90
52285;DHT22;38238;53.304;6.606;2022-08-05T12:19:01;21.20;90.20
52285;DHT22;38238;53.304;6.606;2022-08-05T12:21:32;21.20;89.80
52285;DHT22;38238;53.304;6.606;2022-08-05T12:29:00;21.40;90.30
52285;DHT22;38238;53.304;6.606;2022-08-05T12:31:26;21.60;90.60
52285;DHT22;38238;53.304;6.606;2022-08-05T12:33:52;21.60;90.60
52285;DHT22;38238;53.304;6.606;2022-08-05T12:36:19;21.60;90.90
52285;DHT22;38238;53.304;6.606;2022-08-05T12:38:45;21.50;90.80
52285;DHT22;38238;53.304;6.606;2022-08-05T12:41:13;21.40;90.50
52285;DHT22;38238;53.304;6.606;2022-08-05T12:43:57;21.20;91.00
52285;DHT22;38238;53.304;6.606;2022-08-05T12:46:25;21.10;91.00
52285;DHT22;38238;53.304;6.606;2022-08-05T12:49:01;21.10;91.20
52285;DHT22;38238;53.304;6.606;2022-08-05T12:51:29;21.10;91.40
52285;DHT22;38238;53.304;6.606;2022-08-05T12:54:03;21.00;91.70
52285;DHT22;38238;53.304;6.606;2022-08-05T12:56:29;21.10;92.20
52285;DHT22;38238;53.304;6.606;2022-08-05T12:59:14;21.30;91.90
52285;DHT22;38238;53.304;6.606;2022-08-05T13:01:42;21.20;91.30
52285;DHT22;38238;53.304;6.606;2022-08-05T13:04:09;21.10;91.20
52285;DHT22;38238;53.304;6.606;2022-08-05T13:06:40;21.00;91.30
52285;DHT22;38238;53.304;6.606;2022-08-05T13:09:08;20.80;91.00
52285;DHT22;38238;53.304;6.606;2022-08-05T13:11:38;20.60;91.30
52285;DHT22;38238;53.304;6.606;2022-08-05T13:14:21;20.50;91.80
52285;DHT22;38238;53.304;6.606;2022-08-05T13:16:53;20.30;92.00
52285;DHT22;38238;53.304;6.606;2022-08-05T13:19:21;20.20;92.40
52285;DHT22;38238;53.304;6.606;2022-08-05T13:21:48;20.20;92.70
52285;DHT22;38238;53.304;6.606;2022-08-05T13:24:15;20.20;92.80
52285;DHT22;38238;53.304;6.606;2022-08-05T13:26:43;20.20;93.00
52285;DHT22;38238;53.304;6.606;2022-08-05T13:29:09;20.30;93.10
52285;DHT22;38238;53.304;6.606;2022-08-05T13:31:34;20.50;92.30
52285;DHT22;38238;53.304;6.606;2022-08-05T13:34:00;20.60;91.60
52285;DHT22;38238;53.304;6.606;2022-08-05T13:36:26;20.70;91.30
52285;DHT22;38238;53.304;6.606;2022-08-05T13:38:51;20.70;91.40
52285;DHT22;38238;53.304;6.606;2022-08-05T13:41:17;20.70;91.30
52285;DHT22;38238;53.304;6.606;2022-08-05T13:43:43;20.80;91.10
52285;DHT22;38238;53.304;6.606;2022-08-05T13:46:10;20.90;90.40
52285;DHT22;38238;53.304;6.606;2022-08-05T13:48:38;21.00;91.10
52285;DHT22;38238;53.304;6.606;2022-08-05T13:51:05;21.20;90.70
52285;DHT22;38238;53.304;6.606;2022-08-05T13:53:31;21.30;90.90
52285;DHT22;38238;53.304;6.606;2022-08-05T13:55:58;21.30;90.80
52285;DHT22;38238;53.304;6.606;2022-08-05T13:58:24;21.30;90.90
52285;DHT22;38238;53.304;6.606;2022-08-05T14:00:50;21.10;90.60
52285;DHT22;38238;53.304;6.606;2022-08-05T14:03:15;20.80;91.00
52285;DHT22;38238;53.304;6.606;2022-08-05T14:05:41;20.50;92.10
52285;DHT22;38238;53.304;6.606;2022-08-05T14:08:07;20.30;92.70
52285;DHT22;38238;53.304;6.606;2022-08-05T14:10:32;20.40;93.50
52285;DHT22;38238;53.304;6.606;2022-08-05T14:13:00;20.50;93.20
52285;DHT22;38238;53.304;6.606;2022-08-05T14:15:26;20.30;93.10
52285;DHT22;38238;53.304;6.606;2022-08-05T14:17:52;20.20;92.70
52285;DHT22;38238;53.304;6.606;2022-08-05T14:20:18;20.20;92.90
52285;DHT22;38238;53.304;6.606;2022-08-05T14:22:44;20.20;92.60
52285;DHT22;38238;53.304;6.606;2022-08-05T14:25:09;20.10;92.80
52285;DHT22;38238;53.304;6.606;2022-08-05T14:27:35;20.10;92.70
52285;DHT22;38238;53.304;6.606;2022-08-05T14:30:02;20.00;92.80
52285;DHT22;38238;53.304;6.606;2022-08-05T14:32:28;20.10;92.90
52285;DHT22;38238;53.304;6.606;2022-08-05T14:34:55;20.20;93.30
52285;DHT22;38238;53.304;6.606;2022-08-05T14:37:21;20.50;93.50
52285;DHT22;38238;53.304;6.606;2022-08-05T14:39:47;20.50;92.70
52285;DHT22;38238;53.304;6.606;2022-08-05T14:42:12;20.50;93.30
52285;DHT22;38238;53.304;6.606;2022-08-05T14:44:38;20.60;92.70
52285;DHT22;38238;53.304;6.606;2022-08-05T14:47:04;20.50;92.10
52285;DHT22;38238;53.304;6.606;2022-08-05T14:49:30;20.30;91.70
52285;DHT22;38238;53.304;6.606;2022-08-05T14:51:55;20.20;91.80
52285;DHT22;38238;53.304;6.606;2022-08-05T14:54:21;20.20;91.50
52285;DHT22;38238;53.304;6.606;2022-08-05T14:56:47;20.10;91.80
52285;DHT22;38238;53.304;6.606;2022-08-05T14:59:13;20.20;92.00
52285;DHT22;38238;53.304;6.606;2022-08-05T15:01:39;20.40;91.50
52285;DHT22;38238;53.304;6.606;2022-08-05T15:04:05;20.70;91.40
52285;DHT22;38238;53.304;6.606;2022-08-05T15:06:35;20.90;91.60
52285;DHT22;38238;53.304;6.606;2022-08-05T15:09:00;21.00;91.20
52285;DHT22;38238;53.304;6.606;2022-08-05T15:11:26;21.00;90.70
52285;DHT22;38238;53.304;6.606;2022-08-05T15:13:52;21.00;90.70
52285;DHT22;38238;53.304;6.606;2022-08-05T15:16:18;20.80;90.70
52285;DHT22;38238;53.304;6.606;2022-08-05T15:18:43;20.60;90.90
52285;DHT22;38238;53.304;6.606;2022-08-05T15:21:09;20.50;90.80
52285;DHT22;38238;53.304;6.606;2022-08-05T15:23:35;20.40;90.70
52285;DHT22;38238;53.304;6.606;2022-08-05T15:26:00;20.20;90.60
52285;DHT22;38238;53.304;6.606;2022-08-05T15:28:26;20.30;91.20
52285;DHT22;38238;53.304;6.606;2022-08-05T15:30:52;20.40;91.00
52285;DHT22;38238;53.304;6.606;2022-08-05T15:33:17;20.40;90.70
52285;DHT22;38238;53.304;6.606;2022-08-05T15:35:43;20.50;90.20
52285;DHT22;38238;53.304;6.606;2022-08-05T15:38:09;20.50;90.50
52285;DHT22;38238;53.304;6.606;2022-08-05T15:40:34;20.40;90.80
52285;DHT22;38238;53.304;6.606;2022-08-05T15:43:00;20.40;91.20
52285;DHT22;38238;53.304;6.606;2022-08-05T15:45:26;20.30;91.20
52285;DHT22;38238;53.304;6.606;2022-08-05T15:47:53;20.10;91.60
52285;DHT22;38238;53.304;6.606;2022-08-05T15:50:18;20.00;91.80
52285;DHT22;38238;53.304;6.606;2022-08-05T15:52:44;20.10;92.10
52285;DHT22;38238;53.304;6.606;2022-08-05T15:55:11;20.20;91.90
52285;DHT22;38238;53.304;6.606;2022-08-05T15:57:39;20.30;91.60
52285;DHT22;38238;53.304;6.606;2022-08-05T16:00:06;20.20;91.50